Berryville, AR

4:06 PM CST on December 22, 2014 (GMT -0600)
Branson | Change Station
CLOSE
Current Station
Airport
Location: Branson,
Elevation: 1302 ft
Nearby Weather Stations

Elev 1302 ft 36.53 °N, 93.20 °W | Updated 21 minutes ago

Overcast
Overcast
48 °F
Feels Like 48 °F
N
0
Wind Variable Wind from North

Today
High -- | Low -- °F
--% Chance of Precip.
Yesterday
High -- | Low -- °F
Precip. -- in
7:22 AM 5:03 PM
New Moon, 1% visible
Pressure 29.52 in
Visibility 1.5 miles
Clouds Overcast 500 ft
Dew Point 46 °F
Humidity 93%
Rainfall 0.00 in
Snow Depth Not available.
UV 0 out of 12
Pollen 5.20 out of 12
Air Quality Not available.
Flu Activity Not available.
METAR KBBG 222145Z 00000KT 1 1/2SM -RA BR OVC005 09/08 A2952

More Conditions Fewer Conditions

Pressure 29.52 in
Visibility 1.5 miles
Clouds Overcast 500 ft
Dew Point 46 °F
Humidity 93%
Rainfall 0.00 in
Snow Depth Not available.
UV 0 out of 12
Pollen 5.20 out of 12
Air Quality Not available.
Flu Activity Not available.
METAR KBBG 222145Z 00000KT 1 1/2SM -RA BR OVC005 09/08 A2952

More Conditions Fewer Conditions

Nowcast | as of 3:56 PM CST on December 22, 2014

At 3:56 PM...National Weather Service Doppler radars continued to detect scattered light rain and areas of drizzle moving across far eastern Oklahoma and western Arkansas. Most of the precipitation was located along and east of a line from Welch to Poteau. All this activity was moving toward the east...around 40 miles per hour. Through 5:30 PM...light rain or drizzle will continue to affect far eastern Oklahoma and western Arkansas. Precipitation amounts will be very light...with between a trace...and a few hundredths of an inch expected. The precipitation will come to an end from west to east as northwest winds bring cooler and drier air into the region.

×

10-Day Weather Forecast

Almanac

Astronomy

Dec. 22, 2014 Rise Set
Actual Time
Civil Twilight
Nautical Twilight
Astronomical Twilight
Moon
Length of Visible Light
Length of Day
Tomorrow will be .
, % of the Moon is Illuminated

Today's Extremes

State Highs State Lows

Community

WunderPhotos

Upload Photos

1,779,691 photos uploaded!

WunderBlogs® & News

Nearby

Air Quality

  Air Quality AQ Index Pollutant
Not available.

Snow Depth

Station Depth Elevation

Earthquake Activity

City Distance Mag. Time & Date
Minimum magnitude displayed is 2.5.

Coastal Water Temperatures

Place Temperature

Nearby Weather Stations